sensor_id;sensor_type;location;lat;lon;timestamp;pressure;altitude;pressure_sealevel;temperature;humidity
7433;BME280;32233;49.500;7.764;2024-02-26T00:01:47;96514.56;;;5.92;100.00
7433;BME280;32233;49.500;7.764;2024-02-26T00:04:13;96519.97;;;5.91;100.00
7433;BME280;32233;49.500;7.764;2024-02-26T00:06:40;96535.16;;;5.89;100.00
7433;BME280;32233;49.500;7.764;2024-02-26T00:09:08;96527.94;;;5.84;100.00
7433;BME280;32233;49.500;7.764;2024-02-26T00:11:35;96542.50;;;5.80;100.00
7433;BME280;32233;49.500;7.764;2024-02-26T00:14:03;96523.19;;;5.75;100.00
7433;BME280;32233;49.500;7.764;2024-02-26T00:16:30;96528.00;;;5.78;100.00
7433;BME280;32233;49.500;7.764;2024-02-26T00:18:57;96538.78;;;5.88;100.00
7433;BME280;32233;49.500;7.764;2024-02-26T00:21:23;96553.03;;;5.74;100.00
7433;BME280;32233;49.500;7.764;2024-02-26T00:23:50;96544.06;;;5.63;100.00
7433;BME280;32233;49.500;7.764;2024-02-26T00:26:20;96554.56;;;5.38;100.00
7433;BME280;32233;49.500;7.764;2024-02-26T00:28:46;96552.56;;;5.58;100.00
7433;BME280;32233;49.500;7.764;2024-02-26T00:31:13;96552.28;;;5.48;100.00
7433;BME280;32233;49.500;7.764;2024-02-26T00:33:40;96553.75;;;5.37;100.00
7433;BME280;32233;49.500;7.764;2024-02-26T00:36:07;96557.81;;;5.33;100.00
7433;BME280;32233;49.500;7.764;2024-02-26T00:38:33;96558.97;;;5.44;100.00
7433;BME280;32233;49.500;7.764;2024-02-26T00:41:00;96557.66;;;5.53;100.00
7433;BME280;32233;49.500;7.764;2024-02-26T00:43:26;96567.34;;;5.28;100.00
7433;BME280;32233;49.500;7.764;2024-02-26T00:45:53;96564.84;;;5.39;100.00
7433;BME280;32233;49.500;7.764;2024-02-26T00:48:20;96569.47;;;5.37;100.00
7433;BME280;32233;49.500;7.764;2024-02-26T00:50:46;96574.22;;;5.22;100.00
7433;BME280;32233;49.500;7.764;2024-02-26T00:53:13;96566.56;;;5.27;100.00
7433;BME280;32233;49.500;7.764;2024-02-26T00:55:39;96559.00;;;5.37;100.00
7433;BME280;32233;49.500;7.764;2024-02-26T00:58:06;96562.22;;;5.39;100.00
7433;BME280;32233;49.500;7.764;2024-02-26T01:00:33;96561.25;;;5.34;100.00
7433;BME280;32233;49.500;7.764;2024-02-26T01:03:00;96559.38;;;5.16;100.00
7433;BME280;32233;49.500;7.764;2024-02-26T01:05:26;96556.41;;;5.06;100.00
7433;BME280;32233;49.500;7.764;2024-02-26T01:07:53;96555.81;;;5.10;100.00
7433;BME280;32233;49.500;7.764;2024-02-26T01:10:20;96558.91;;;5.26;100.00
7433;BME280;32233;49.500;7.764;2024-02-26T01:12:47;96554.09;;;5.22;100.00
7433;BME280;32233;49.500;7.764;2024-02-26T01:15:14;96559.78;;;5.13;100.00
7433;BME280;32233;49.500;7.764;2024-02-26T01:17:41;96558.63;;;5.09;100.00
7433;BME280;32233;49.500;7.764;2024-02-26T01:20:08;96548.63;;;4.99;100.00
7433;BME280;32233;49.500;7.764;2024-02-26T01:22:35;96537.50;;;4.72;100.00
7433;BME280;32233;49.500;7.764;2024-02-26T01:25:02;96529.81;;;4.77;100.00
7433;BME280;32233;49.500;7.764;2024-02-26T01:27:29;96528.81;;;4.78;100.00
7433;BME280;32233;49.500;7.764;2024-02-26T01:29:55;96531.63;;;4.77;100.00
7433;BME280;32233;49.500;7.764;2024-02-26T01:32:22;96520.19;;;4.78;100.00
7433;BME280;32233;49.500;7.764;2024-02-26T01:34:49;96518.38;;;4.71;100.00
7433;BME280;32233;49.500;7.764;2024-02-26T01:37:15;96513.56;;;4.68;100.00
7433;BME280;32233;49.500;7.764;2024-02-26T01:39:42;96516.72;;;4.77;100.00
7433;BME280;32233;49.500;7.764;2024-02-26T01:42:08;96512.47;;;4.83;100.00
7433;BME280;32233;49.500;7.764;2024-02-26T01:44:35;96519.03;;;4.67;100.00
7433;BME280;32233;49.500;7.764;2024-02-26T01:47:02;96516.88;;;4.57;100.00
7433;BME280;32233;49.500;7.764;2024-02-26T01:49:29;96512.00;;;4.61;100.00
7433;BME280;32233;49.500;7.764;2024-02-26T01:51:57;96508.44;;;4.55;100.00
7433;BME280;32233;49.500;7.764;2024-02-26T01:54:25;96509.22;;;4.56;100.00
7433;BME280;32233;49.500;7.764;2024-02-26T01:56:52;96508.81;;;4.59;100.00
7433;BME280;32233;49.500;7.764;2024-02-26T01:59:19;96512.72;;;4.43;100.00
7433;BME280;32233;49.500;7.764;2024-02-26T02:01:48;96508.66;;;4.47;100.00
7433;BME280;32233;49.500;7.764;2024-02-26T02:04:16;96505.09;;;4.35;100.00
7433;BME280;32233;49.500;7.764;2024-02-26T02:06:45;96503.06;;;4.43;100.00
7433;BME280;32233;49.500;7.764;2024-02-26T02:09:12;96503.66;;;4.45;100.00
7433;BME280;32233;49.500;7.764;2024-02-26T02:11:38;96504.53;;;4.33;100.00
7433;BME280;32233;49.500;7.764;2024-02-26T02:14:06;96500.75;;;4.22;100.00
7433;BME280;32233;49.500;7.764;2024-02-26T02:16:32;96503.94;;;4.24;100.00
7433;BME280;32233;49.500;7.764;2024-02-26T02:18:59;96498.13;;;4.22;100.00
7433;BME280;32233;49.500;7.764;2024-02-26T02:21:26;96501.31;;;4.31;100.00
7433;BME280;32233;49.500;7.764;2024-02-26T02:23:52;96501.88;;;4.39;100.00
7433;BME280;32233;49.500;7.764;2024-02-26T02:26:19;96510.06;;;4.50;100.00
7433;BME280;32233;49.500;7.764;2024-02-26T02:28:47;96506.72;;;4.36;100.00
7433;BME280;32233;49.500;7.764;2024-02-26T02:31:15;96504.78;;;4.25;100.00
7433;BME280;32233;49.500;7.764;2024-02-26T02:33:42;96511.78;;;4.31;100.00
7433;BME280;32233;49.500;7.764;2024-02-26T02:36:09;96498.16;;;4.15;100.00
7433;BME280;32233;49.500;7.764;2024-02-26T02:38:37;96506.59;;;4.17;100.00
7433;BME280;32233;49.500;7.764;2024-02-26T02:41:04;96494.78;;;4.08;100.00
7433;BME280;32233;49.500;7.764;2024-02-26T02:43:31;96491.16;;;4.09;100.00
7433;BME280;32233;49.500;7.764;2024-02-26T02:45:58;96495.16;;;4.12;100.00
7433;BME280;32233;49.500;7.764;2024-02-26T02:48:24;96486.31;;;4.13;100.00
7433;BME280;32233;49.500;7.764;2024-02-26T02:50:51;96491.94;;;4.16;100.00
7433;BME280;32233;49.500;7.764;2024-02-26T02:53:18;96483.47;;;4.21;100.00
7433;BME280;32233;49.500;7.764;2024-02-26T02:55:45;96484.03;;;4.23;100.00
7433;BME280;32233;49.500;7.764;2024-02-26T02:58:11;96490.91;;;4.17;100.00
7433;BME280;32233;49.500;7.764;2024-02-26T03:00:38;96486.13;;;4.08;100.00
7433;BME280;32233;49.500;7.764;2024-02-26T03:03:04;96494.00;;;4.01;100.00
7433;BME280;32233;49.500;7.764;2024-02-26T03:05:31;96489.50;;;4.21;100.00
7433;BME280;32233;49.500;7.764;2024-02-26T03:07:58;96480.22;;;4.26;100.00
7433;BME280;32233;49.500;7.764;2024-02-26T03:10:24;96482.19;;;4.30;100.00
7433;BME280;32233;49.500;7.764;2024-02-26T03:12:51;96482.63;;;4.27;100.00
7433;BME280;32233;49.500;7.764;2024-02-26T03:15:18;96482.06;;;4.18;100.00
7433;BME280;32233;49.500;7.764;2024-02-26T03:17:44;96475.00;;;4.19;100.00
7433;BME280;32233;49.500;7.764;2024-02-26T03:20:11;96476.41;;;4.21;100.00
7433;BME280;32233;49.500;7.764;2024-02-26T03:22:39;96474.78;;;4.27;100.00
7433;BME280;32233;49.500;7.764;2024-02-26T03:25:06;96467.34;;;4.24;100.00
7433;BME280;32233;49.500;7.764;2024-02-26T03:27:33;96475.22;;;4.17;100.00
7433;BME280;32233;49.500;7.764;2024-02-26T03:30:00;96470.44;;;4.08;100.00
7433;BME280;32233;49.500;7.764;2024-02-26T03:32:27;96470.25;;;4.09;100.00
7433;BME280;32233;49.500;7.764;2024-02-26T03:34:53;96469.00;;;4.12;100.00
7433;BME280;32233;49.500;7.764;2024-02-26T03:37:22;96475.00;;;4.19;100.00
7433;BME280;32233;49.500;7.764;2024-02-26T03:39:49;96468.59;;;4.15;100.00
7433;BME280;32233;49.500;7.764;2024-02-26T03:42:15;96465.34;;;4.19;100.00
7433;BME280;32233;49.500;7.764;2024-02-26T03:44:43;96465.56;;;4.18;100.00
7433;BME280;32233;49.500;7.764;2024-02-26T03:47:09;96462.94;;;4.18;100.00
7433;BME280;32233;49.500;7.764;2024-02-26T03:49:36;96458.53;;;4.12;100.00
7433;BME280;32233;49.500;7.764;2024-02-26T03:52:03;96463.53;;;4.20;100.00
7433;BME280;32233;49.500;7.764;2024-02-26T03:54:30;96464.22;;;4.09;100.00
7433;BME280;32233;49.500;7.764;2024-02-26T03:56:56;96463.41;;;4.08;100.00
7433;BME280;32233;49.500;7.764;2024-02-26T03:59:23;96465.81;;;4.10;100.00
7433;BME280;32233;49.500;7.764;2024-02-26T04:01:51;96467.78;;;4.14;100.00
7433;BME280;32233;49.500;7.764;2024-02-26T04:04:17;96463.78;;;4.12;100.00
7433;BME280;32233;49.500;7.764;2024-02-26T04:06:45;96459.38;;;4.06;100.00
7433;BME280;32233;49.500;7.764;2024-02-26T04:09:16;96461.78;;;4.07;100.00
7433;BME280;32233;49.500;7.764;2024-02-26T04:11:42;96459.78;;;4.09;100.00
7433;BME280;32233;49.500;7.764;2024-02-26T04:14:12;96450.69;;;4.12;100.00
7433;BME280;32233;49.500;7.764;2024-02-26T04:16:39;96454.50;;;4.16;100.00
7433;BME280;32233;49.500;7.764;2024-02-26T04:19:05;96449.06;;;4.17;100.00
7433;BME280;32233;49.500;7.764;2024-02-26T04:21:34;96456.38;;;4.09;100.00
7433;BME280;32233;49.500;7.764;2024-02-26T04:24:01;96450.50;;;4.13;100.00
7433;BME280;32233;49.500;7.764;2024-02-26T04:26:30;96445.84;;;4.15;100.00
7433;BME280;32233;49.500;7.764;2024-02-26T04:28:57;96454.13;;;4.12;100.00
7433;BME280;32233;49.500;7.764;2024-02-26T04:31:24;96448.53;;;4.09;100.00
7433;BME280;32233;49.500;7.764;2024-02-26T04:33:52;96450.34;;;4.08;100.00
7433;BME280;32233;49.500;7.764;2024-02-26T04:36:19;96445.91;;;4.09;100.00
7433;BME280;32233;49.500;7.764;2024-02-26T04:38:46;96454.34;;;4.11;100.00
7433;BME280;32233;49.500;7.764;2024-02-26T04:41:12;96455.56;;;4.08;100.00
7433;BME280;32233;49.500;7.764;2024-02-26T04:43:40;96451.94;;;4.09;100.00
7433;BME280;32233;49.500;7.764;2024-02-26T04:46:08;96455.19;;;4.05;100.00
7433;BME280;32233;49.500;7.764;2024-02-26T04:48:36;96459.97;;;4.08;100.00
7433;BME280;32233;49.500;7.764;2024-02-26T04:51:03;96455.94;;;4.12;100.00
7433;BME280;32233;49.500;7.764;2024-02-26T04:53:30;96451.13;;;4.09;100.00
7433;BME280;32233;49.500;7.764;2024-02-26T04:55:56;96458.53;;;4.12;100.00
7433;BME280;32233;49.500;7.764;2024-02-26T04:58:23;96460.97;;;4.13;100.00
7433;BME280;32233;49.500;7.764;2024-02-26T05:00:50;96462.00;;;4.12;100.00
7433;BME280;32233;49.500;7.764;2024-02-26T05:03:16;96468.81;;;4.13;100.00
7433;BME280;32233;49.500;7.764;2024-02-26T05:05:43;96461.13;;;4.18;100.00
7433;BME280;32233;49.500;7.764;2024-02-26T05:08:10;96467.97;;;4.19;100.00
7433;BME280;32233;49.500;7.764;2024-02-26T05:10:37;96464.94;;;4.22;100.00
7433;BME280;32233;49.500;7.764;2024-02-26T05:13:07;96467.78;;;4.21;100.00
7433;BME280;32233;49.500;7.764;2024-02-26T05:15:34;96475.63;;;4.21;100.00
7433;BME280;32233;49.500;7.764;2024-02-26T05:18:01;96478.00;;;4.22;100.00
7433;BME280;32233;49.500;7.764;2024-02-26T05:20:27;96482.22;;;4.23;100.00
7433;BME280;32233;49.500;7.764;2024-02-26T05:22:54;96479.59;;;4.23;100.00
7433;BME280;32233;49.500;7.764;2024-02-26T05:25:21;96480.41;;;4.24;100.00
7433;BME280;32233;49.500;7.764;2024-02-26T05:27:47;96476.59;;;4.27;100.00
7433;BME280;32233;49.500;7.764;2024-02-26T05:30:14;96483.41;;;4.28;100.00
7433;BME280;32233;49.500;7.764;2024-02-26T05:32:41;96485.22;;;4.27;100.00
7433;BME280;32233;49.500;7.764;2024-02-26T05:35:08;96490.03;;;4.30;100.00
7433;BME280;32233;49.500;7.764;2024-02-26T05:37:35;96488.44;;;4.29;100.00
7433;BME280;32233;49.500;7.764;2024-02-26T05:40:01;96490.84;;;4.31;100.00
7433;BME280;32233;49.500;7.764;2024-02-26T05:42:30;96496.50;;;4.28;100.00
7433;BME280;32233;49.500;7.764;2024-02-26T05:44:57;96495.28;;;4.30;100.00
7433;BME280;32233;49.500;7.764;2024-02-26T05:47:24;96499.09;;;4.28;100.00
7433;BME280;32233;49.500;7.764;2024-02-26T05:49:51;96500.34;;;4.25;100.00
7433;BME280;32233;49.500;7.764;2024-02-26T05:52:17;96510.19;;;4.30;100.00
7433;BME280;32233;49.500;7.764;2024-02-26T05:54:44;96508.75;;;4.27;100.00
7433;BME280;32233;49.500;7.764;2024-02-26T05:57:10;96508.19;;;4.25;100.00
7433;BME280;32233;49.500;7.764;2024-02-26T05:59:37;96504.16;;;4.22;100.00
7433;BME280;32233;49.500;7.764;2024-02-26T06:02:04;96516.03;;;4.25;100.00
7433;BME280;32233;49.500;7.764;2024-02-26T06:04:31;96518.81;;;4.30;100.00
7433;BME280;32233;49.500;7.764;2024-02-26T06:06:57;96519.47;;;4.19;100.00
7433;BME280;32233;49.500;7.764;2024-02-26T06:09:24;96525.09;;;4.22;100.00
7433;BME280;32233;49.500;7.764;2024-02-26T06:11:50;96529.31;;;4.23;100.00
7433;BME280;32233;49.500;7.764;2024-02-26T06:14:17;96533.94;;;4.21;100.00
7433;BME280;32233;49.500;7.764;2024-02-26T06:16:44;96538.19;;;4.16;100.00
7433;BME280;32233;49.500;7.764;2024-02-26T06:19:11;96532.53;;;4.19;100.00
7433;BME280;32233;49.500;7.764;2024-02-26T06:21:39;96533.78;;;4.16;100.00
7433;BME280;32233;49.500;7.764;2024-02-26T06:24:06;96539.19;;;4.21;100.00
7433;BME280;32233;49.500;7.764;2024-02-26T06:26:32;96541.97;;;4.20;100.00
7433;BME280;32233;49.500;7.764;2024-02-26T06:29:00;96545.00;;;4.23;100.00
7433;BME280;32233;49.500;7.764;2024-02-26T06:31:26;96543.56;;;4.28;100.00
7433;BME280;32233;49.500;7.764;2024-02-26T06:33:54;96546.41;;;4.26;100.00
7433;BME280;32233;49.500;7.764;2024-02-26T06:36:22;96558.47;;;4.27;100.00
7433;BME280;32233;49.500;7.764;2024-02-26T06:38:49;96551.22;;;4.29;100.00
7433;BME280;32233;49.500;7.764;2024-02-26T06:41:16;96562.06;;;4.33;100.00
7433;BME280;32233;49.500;7.764;2024-02-26T06:43:42;96557.22;;;4.36;100.00
7433;BME280;32233;49.500;7.764;2024-02-26T06:46:09;96559.22;;;4.41;100.00
7433;BME280;32233;49.500;7.764;2024-02-26T06:48:36;96561.63;;;4.42;100.00
7433;BME280;32233;49.500;7.764;2024-02-26T06:51:03;96562.41;;;4.43;100.00
7433;BME280;32233;49.500;7.764;2024-02-26T06:53:30;96559.63;;;4.38;100.00
7433;BME280;32233;49.500;7.764;2024-02-26T06:55:57;96556.81;;;4.39;100.00
7433;BME280;32233;49.500;7.764;2024-02-26T06:58:24;96562.63;;;4.41;100.00
7433;BME280;32233;49.500;7.764;2024-02-26T07:00:50;96560.81;;;4.42;100.00
7433;BME280;32233;49.500;7.764;2024-02-26T07:03:17;96570.66;;;4.46;100.00
7433;BME280;32233;49.500;7.764;2024-02-26T07:05:44;96570.03;;;4.51;100.00
7433;BME280;32233;49.500;7.764;2024-02-26T07:08:12;96568.44;;;4.43;100.00
7433;BME280;32233;49.500;7.764;2024-02-26T07:10:39;96571.59;;;4.59;100.00
7433;BME280;32233;49.500;7.764;2024-02-26T07:13:05;96575.03;;;4.59;100.00
7433;BME280;32233;49.500;7.764;2024-02-26T07:15:32;96579.28;;;4.54;100.00
7433;BME280;32233;49.500;7.764;2024-02-26T07:17:59;96588.91;;;4.60;100.00
7433;BME280;32233;49.500;7.764;2024-02-26T07:20:30;96592.94;;;4.62;100.00
7433;BME280;32233;49.500;7.764;2024-02-26T07:22:57;96588.66;;;4.68;100.00
7433;BME280;32233;49.500;7.764;2024-02-26T07:25:24;96601.13;;;4.72;100.00
7433;BME280;32233;49.500;7.764;2024-02-26T07:27:50;96611.19;;;4.69;100.00
7433;BME280;32233;49.500;7.764;2024-02-26T07:30:17;96612.03;;;4.69;100.00
7433;BME280;32233;49.500;7.764;2024-02-26T07:32:44;96607.94;;;4.80;100.00
7433;BME280;32233;49.500;7.764;2024-02-26T07:35:16;96613.56;;;4.84;100.00
7433;BME280;32233;49.500;7.764;2024-02-26T07:37:44;96620.63;;;4.83;100.00
7433;BME280;32233;49.500;7.764;2024-02-26T07:40:10;96620.44;;;4.78;100.00
7433;BME280;32233;49.500;7.764;2024-02-26T07:42:37;96622.38;;;4.89;100.00
7433;BME280;32233;49.500;7.764;2024-02-26T07:45:06;96625.19;;;4.94;100.00
7433;BME280;32233;49.500;7.764;2024-02-26T07:47:32;96620.94;;;4.93;100.00
7433;BME280;32233;49.500;7.764;2024-02-26T07:50:01;96621.59;;;4.89;100.00
7433;BME280;32233;49.500;7.764;2024-02-26T07:52:28;96629.44;;;4.89;100.00
7433;BME280;32233;49.500;7.764;2024-02-26T07:54:55;96624.16;;;4.95;100.00
7433;BME280;32233;49.500;7.764;2024-02-26T07:57:21;96627.00;;;4.94;100.00
7433;BME280;32233;49.500;7.764;2024-02-26T07:59:48;96629.81;;;4.92;100.00
7433;BME280;32233;49.500;7.764;2024-02-26T08:02:16;96627.97;;;5.00;100.00
7433;BME280;32233;49.500;7.764;2024-02-26T08:04:43;96630.13;;;5.09;100.00
7433;BME280;32233;49.500;7.764;2024-02-26T08:07:10;96629.13;;;5.10;100.00
7433;BME280;32233;49.500;7.764;2024-02-26T08:09:36;96642.66;;;5.07;100.00
7433;BME280;32233;49.500;7.764;2024-02-26T08:12:03;96644.97;;;5.22;100.00
7433;BME280;32233;49.500;7.764;2024-02-26T08:14:30;96644.16;;;5.21;100.00
7433;BME280;32233;49.500;7.764;2024-02-26T08:16:59;96651.22;;;5.21;100.00
7433;BME280;32233;49.500;7.764;2024-02-26T08:19:26;96643.25;;;5.34;100.00
7433;BME280;32233;49.500;7.764;2024-02-26T08:21:54;96644.88;;;5.35;100.00
7433;BME280;32233;49.500;7.764;2024-02-26T08:24:21;96653.94;;;5.39;100.00
7433;BME280;32233;49.500;7.764;2024-02-26T08:26:47;96651.13;;;5.34;100.00
7433;BME280;32233;49.500;7.764;2024-02-26T08:29:14;96639.78;;;5.47;100.00
7433;BME280;32233;49.500;7.764;2024-02-26T08:31:41;96646.72;;;5.60;100.00
7433;BME280;32233;49.500;7.764;2024-02-26T08:34:07;96637.53;;;5.76;100.00
7433;BME280;32233;49.500;7.764;2024-02-26T08:36:34;96637.31;;;5.77;100.00
7433;BME280;32233;49.500;7.764;2024-02-26T08:39:01;96638.16;;;5.71;100.00
7433;BME280;32233;49.500;7.764;2024-02-26T08:41:28;96639.19;;;5.70;100.00
7433;BME280;32233;49.500;7.764;2024-02-26T08:43:55;96656.56;;;5.64;100.00
7433;BME280;32233;49.500;7.764;2024-02-26T08:46:22;96663.38;;;5.72;100.00
7433;BME280;32233;49.500;7.764;2024-02-26T08:48:48;96662.56;;;5.71;100.00
7433;BME280;32233;49.500;7.764;2024-02-26T08:51:15;96672.03;;;5.72;100.00
7433;BME280;32233;49.500;7.764;2024-02-26T08:53:43;96680.19;;;5.58;100.00
7433;BME280;32233;49.500;7.764;2024-02-26T08:56:10;96684.34;;;5.72;100.00
7433;BME280;32233;49.500;7.764;2024-02-26T08:58:44;96682.19;;;5.94;100.00
7433;BME280;32233;49.500;7.764;2024-02-26T09:01:12;96675.72;;;5.90;100.00
7433;BME280;32233;49.500;7.764;2024-02-26T09:03:39;96674.91;;;5.96;100.00
7433;BME280;32233;49.500;7.764;2024-02-26T09:06:06;96674.56;;;6.11;100.00
7433;BME280;32233;49.500;7.764;2024-02-26T09:08:33;96674.88;;;6.21;100.00
7433;BME280;32233;49.500;7.764;2024-02-26T09:11:00;96674.88;;;6.39;100.00
7433;BME280;32233;49.500;7.764;2024-02-26T09:13:26;96683.50;;;6.47;100.00
7433;BME280;32233;49.500;7.764;2024-02-26T09:15:53;96680.25;;;6.69;100.00
7433;BME280;32233;49.500;7.764;2024-02-26T09:18:21;96694.56;;;6.85;100.00
7433;BME280;32233;49.500;7.764;2024-02-26T09:20:47;96697.97;;;6.74;100.00
7433;BME280;32233;49.500;7.764;2024-02-26T09:23:14;96699.41;;;6.70;100.00
7433;BME280;32233;49.500;7.764;2024-02-26T09:25:40;96713.53;;;6.69;100.00
7433;BME280;32233;49.500;7.764;2024-02-26T09:28:07;96709.53;;;6.66;100.00
7433;BME280;32233;49.500;7.764;2024-02-26T09:30:34;96717.00;;;6.69;100.00
7433;BME280;32233;49.500;7.764;2024-02-26T09:33:00;96723.97;;;6.76;100.00
7433;BME280;32233;49.500;7.764;2024-02-26T09:35:27;96723.25;;;6.68;100.00
7433;BME280;32233;49.500;7.764;2024-02-26T09:37:54;96725.16;;;6.80;100.00
7433;BME280;32233;49.500;7.764;2024-02-26T09:40:20;96721.69;;;6.98;100.00
7433;BME280;32233;49.500;7.764;2024-02-26T09:42:49;96728.41;;;6.93;100.00
7433;BME280;32233;49.500;7.764;2024-02-26T09:45:21;96730.00;;;7.13;100.00
7433;BME280;32233;49.500;7.764;2024-02-26T09:47:49;96723.28;;;7.17;100.00
7433;BME280;32233;49.500;7.764;2024-02-26T09:50:17;96730.56;;;7.33;100.00
7433;BME280;32233;49.500;7.764;2024-02-26T09:52:44;96727.50;;;7.36;100.00
7433;BME280;32233;49.500;7.764;2024-02-26T09:55:11;96735.63;;;7.35;100.00
7433;BME280;32233;49.500;7.764;2024-02-26T09:57:38;96730.31;;;7.53;100.00
7433;BME280;32233;49.500;7.764;2024-02-26T10:00:08;96742.22;;;7.56;100.00
7433;BME280;32233;49.500;7.764;2024-02-26T10:02:38;96749.38;;;7.90;100.00
7433;BME280;32233;49.500;7.764;2024-02-26T10:05:07;96745.56;;;8.16;100.00
7433;BME280;32233;49.500;7.764;2024-02-26T10:07:37;96750.81;;;8.05;100.00
7433;BME280;32233;49.500;7.764;2024-02-26T10:10:04;96750.72;;;8.35;100.00
7433;BME280;32233;49.500;7.764;2024-02-26T10:12:31;96743.50;;;8.30;100.00
7433;BME280;32233;49.500;7.764;2024-02-26T10:14:59;96749.97;;;8.46;100.00
7433;BME280;32233;49.500;7.764;2024-02-26T10:17:26;96749.09;;;8.22;100.00
7433;BME280;32233;49.500;7.764;2024-02-26T10:19:54;96748.19;;;8.05;100.00
7433;BME280;32233;49.500;7.764;2024-02-26T10:22:23;96759.38;;;8.12;100.00
7433;BME280;32233;49.500;7.764;2024-02-26T10:24:49;96747.88;;;8.48;100.00
7433;BME280;32233;49.500;7.764;2024-02-26T10:27:16;96759.75;;;8.27;100.00
7433;BME280;32233;49.500;7.764;2024-02-26T10:29:43;96761.47;;;8.33;100.00
7433;BME280;32233;49.500;7.764;2024-02-26T10:32:10;96773.50;;;8.29;100.00
7433;BME280;32233;49.500;7.764;2024-02-26T10:34:37;96776.94;;;8.30;100.00
7433;BME280;32233;49.500;7.764;2024-02-26T10:37:07;96781.25;;;8.24;100.00
7433;BME280;32233;49.500;7.764;2024-02-26T10:39:36;96779.03;;;8.39;100.00
7433;BME280;32233;49.500;7.764;2024-02-26T10:42:03;96781.19;;;8.42;100.00
7433;BME280;32233;49.500;7.764;2024-02-26T10:44:36;96792.22;;;8.63;100.00
7433;BME280;32233;49.500;7.764;2024-02-26T10:47:03;96790.03;;;8.60;100.00
7433;BME280;32233;49.500;7.764;2024-02-26T10:49:34;96789.91;;;8.66;100.00
7433;BME280;32233;49.500;7.764;2024-02-26T10:52:03;96782.47;;;8.63;100.00
7433;BME280;32233;49.500;7.764;2024-02-26T10:54:32;96789.56;;;8.98;100.00
7433;BME280;32233;49.500;7.764;2024-02-26T10:57:00;96786.81;;;9.45;100.00
7433;BME280;32233;49.500;7.764;2024-02-26T10:59:27;96775.53;;;10.07;100.00
7433;BME280;32233;49.500;7.764;2024-02-26T11:01:54;96774.78;;;10.96;100.00
7433;BME280;32233;49.500;7.764;2024-02-26T11:04:22;96780.53;;;10.37;100.00
7433;BME280;32233;49.500;7.764;2024-02-26T11:06:54;96773.31;;;10.32;100.00
7433;BME280;32233;49.500;7.764;2024-02-26T11:09:24;96777.81;;;10.65;100.00
7433;BME280;32233;49.500;7.764;2024-02-26T11:11:51;96773.81;;;11.46;100.00
7433;BME280;32233;49.500;7.764;2024-02-26T11:14:21;96785.19;;;10.85;100.00
7433;BME280;32233;49.500;7.764;2024-02-26T11:16:49;96785.22;;;10.69;100.00
7433;BME280;32233;49.500;7.764;2024-02-26T11:19:16;96788.00;;;10.11;100.00
7433;BME280;32233;49.500;7.764;2024-02-26T11:21:44;96808.59;;;9.40;100.00
7433;BME280;32233;49.500;7.764;2024-02-26T11:24:13;96815.50;;;9.30;100.00
7433;BME280;32233;49.500;7.764;2024-02-26T11:26:44;96826.09;;;8.71;100.00
7433;BME280;32233;49.500;7.764;2024-02-26T11:29:17;96824.25;;;8.60;100.00
7433;BME280;32233;49.500;7.764;2024-02-26T11:31:46;96826.00;;;8.66;100.00
7433;BME280;32233;49.500;7.764;2024-02-26T11:34:13;96832.94;;;8.49;100.00
7433;BME280;32233;49.500;7.764;2024-02-26T11:36:40;96827.34;;;8.57;100.00
7433;BME280;32233;49.500;7.764;2024-02-26T11:39:11;96825.88;;;8.73;100.00
7433;BME280;32233;49.500;7.764;2024-02-26T11:41:39;96818.66;;;9.03;100.00
7433;BME280;32233;49.500;7.764;2024-02-26T11:44:06;96818.38;;;9.28;100.00
7433;BME280;32233;49.500;7.764;2024-02-26T11:46:39;96814.59;;;9.24;100.00
7433;BME280;32233;49.500;7.764;2024-02-26T11:51:54;96813.59;;;9.02;100.00
7433;BME280;32233;49.500;7.764;2024-02-26T11:59:57;96818.22;;;9.47;100.00
7433;BME280;32233;49.500;7.764;2024-02-26T12:05:17;96806.78;;;9.70;100.00
7433;BME280;32233;49.500;7.764;2024-02-26T12:07:48;96817.06;;;9.83;100.00
7433;BME280;32233;49.500;7.764;2024-02-26T12:10:21;96822.38;;;10.00;100.00
7433;BME280;32233;49.500;7.764;2024-02-26T12:12:59;96823.25;;;9.60;100.00
7433;BME280;32233;49.500;7.764;2024-02-26T12:15:36;96824.09;;;9.77;100.00
7433;BME280;32233;49.500;7.764;2024-02-26T12:18:05;96819.97;;;9.70;100.00
7433;BME280;32233;49.500;7.764;2024-02-26T12:20:32;96828.31;;;9.78;100.00
7433;BME280;32233;49.500;7.764;2024-02-26T12:22:59;96822.28;;;9.95;100.00
7433;BME280;32233;49.500;7.764;2024-02-26T12:25:28;96825.94;;;9.77;100.00
7433;BME280;32233;49.500;7.764;2024-02-26T12:27:55;96828.84;;;9.63;100.00
7433;BME280;32233;49.500;7.764;2024-02-26T12:30:23;96827.72;;;10.16;100.00
7433;BME280;32233;49.500;7.764;2024-02-26T12:32:52;96828.22;;;10.47;100.00
7433;BME280;32233;49.500;7.764;2024-02-26T12:35:19;96837.28;;;10.06;100.00
7433;BME280;32233;49.500;7.764;2024-02-26T12:37:46;96830.91;;;9.90;100.00
7433;BME280;32233;49.500;7.764;2024-02-26T12:40:13;96838.69;;;9.28;100.00
7433;BME280;32233;49.500;7.764;2024-02-26T12:42:40;96837.66;;;9.69;100.00
7433;BME280;32233;49.500;7.764;2024-02-26T12:45:10;96840.00;;;9.54;100.00
7433;BME280;32233;49.500;7.764;2024-02-26T12:47:38;96838.81;;;9.61;100.00
7433;BME280;32233;49.500;7.764;2024-02-26T12:50:06;96830.63;;;9.75;100.00
7433;BME280;32233;49.500;7.764;2024-02-26T12:52:38;96830.41;;;10.05;100.00
7433;BME280;32233;49.500;7.764;2024-02-26T12:55:06;96835.81;;;9.70;100.00
7433;BME280;32233;49.500;7.764;2024-02-26T12:57:39;96842.34;;;9.96;100.00
7433;BME280;32233;49.500;7.764;2024-02-26T13:00:12;96850.94;;;9.74;100.00
7433;BME280;32233;49.500;7.764;2024-02-26T13:02:42;96856.00;;;9.76;100.00
7433;BME280;32233;49.500;7.764;2024-02-26T13:05:13;96860.41;;;9.47;100.00
7433;BME280;32233;49.500;7.764;2024-02-26T13:07:42;96869.09;;;9.59;100.00
7433;BME280;32233;49.500;7.764;2024-02-26T13:10:10;96867.31;;;9.48;100.00
7433;BME280;32233;49.500;7.764;2024-02-26T13:12:46;96873.59;;;9.47;100.00
7433;BME280;32233;49.500;7.764;2024-02-26T13:15:17;96876.13;;;9.41;100.00
7433;BME280;32233;49.500;7.764;2024-02-26T13:17:45;96877.13;;;9.64;100.00
7433;BME280;32233;49.500;7.764;2024-02-26T13:20:13;96876.13;;;9.53;100.00
7433;BME280;32233;49.500;7.764;2024-02-26T13:22:41;96885.66;;;9.42;100.00